sensor_id;sensor_type;location;lat;lon;timestamp;P1;durP1;ratioP1;P2;durP2;ratioP2
12719;SDS011;6424;48.520;11.228;2023-04-03T00:00:44;4.87;;;3.63;;
12719;SDS011;6424;48.520;11.228;2023-04-03T00:03:25;3.83;;;3.37;;
12719;SDS011;6424;48.520;11.228;2023-04-03T00:06:06;6.70;;;3.57;;
12719;SDS011;6424;48.520;11.228;2023-04-03T00:08:47;6.20;;;3.23;;
12719;SDS011;6424;48.520;11.228;2023-04-03T00:11:28;5.30;;;2.83;;
12719;SDS011;6424;48.520;11.228;2023-04-03T00:13:54;3.93;;;2.73;;
12719;SDS011;6424;48.520;11.228;2023-04-03T00:16:19;2.60;;;2.30;;
12719;SDS011;6424;48.520;11.228;2023-04-03T00:19:00;5.47;;;3.63;;
12719;SDS011;6424;48.520;11.228;2023-04-03T00:21:41;3.67;;;2.60;;
12719;SDS011;6424;48.520;11.228;2023-04-03T00:24:22;5.20;;;3.00;;
12719;SDS011;6424;48.520;11.228;2023-04-03T00:27:03;4.50;;;2.93;;
12719;SDS011;6424;48.520;11.228;2023-04-03T00:29:43;5.40;;;3.47;;
12719;SDS011;6424;48.520;11.228;2023-04-03T00:32:24;5.37;;;2.90;;
12719;SDS011;6424;48.520;11.228;2023-04-03T00:34:50;3.90;;;2.67;;
12719;SDS011;6424;48.520;11.228;2023-04-03T00:37:31;3.07;;;2.60;;
12719;SDS011;6424;48.520;11.228;2023-04-03T00:40:12;3.20;;;2.90;;
12719;SDS011;6424;48.520;11.228;2023-04-03T00:42:58;3.43;;;3.13;;
12719;SDS011;6424;48.520;11.228;2023-04-03T00:45:41;4.07;;;3.27;;
12719;SDS011;6424;48.520;11.228;2023-04-03T00:51:13;2.93;;;2.67;;
12719;SDS011;6424;48.520;11.228;2023-04-03T00:54:01;3.90;;;2.93;;
12719;SDS011;6424;48.520;11.228;2023-04-03T00:56:44;5.40;;;3.60;;
12719;SDS011;6424;48.520;11.228;2023-04-03T00:59:12;3.33;;;2.97;;
12719;SDS011;6424;48.520;11.228;2023-04-03T01:01:55;2.87;;;2.63;;
12719;SDS011;6424;48.520;11.228;2023-04-03T01:04:38;2.80;;;2.43;;
12719;SDS011;6424;48.520;11.228;2023-04-03T01:10:05;4.13;;;2.60;;
12719;SDS011;6424;48.520;11.228;2023-04-03T01:12:49;4.87;;;2.97;;
12719;SDS011;6424;48.520;11.228;2023-04-03T01:15:30;3.50;;;2.40;;
12719;SDS011;6424;48.520;11.228;2023-04-03T01:18:15;3.07;;;2.60;;
12719;SDS011;6424;48.520;11.228;2023-04-03T01:26:33;3.37;;;3.07;;
12719;SDS011;6424;48.520;11.228;2023-04-03T01:29:15;3.47;;;2.73;;
12719;SDS011;6424;48.520;11.228;2023-04-03T01:31:57;4.23;;;2.73;;
12719;SDS011;6424;48.520;11.228;2023-04-03T01:34:40;3.27;;;2.60;;
12719;SDS011;6424;48.520;11.228;2023-04-03T01:37:21;3.67;;;2.60;;
12719;SDS011;6424;48.520;11.228;2023-04-03T01:40:02;3.10;;;2.60;;
12719;SDS011;6424;48.520;11.228;2023-04-03T01:42:43;3.47;;;2.30;;
12719;SDS011;6424;48.520;11.228;2023-04-03T01:45:24;2.93;;;2.43;;
12719;SDS011;6424;48.520;11.228;2023-04-03T01:47:50;4.77;;;2.90;;
12719;SDS011;6424;48.520;11.228;2023-04-03T01:50:30;3.83;;;2.60;;
12719;SDS011;6424;48.520;11.228;2023-04-03T01:53:12;2.60;;;2.33;;
12719;SDS011;6424;48.520;11.228;2023-04-03T01:55:54;3.13;;;2.50;;
12719;SDS011;6424;48.520;11.228;2023-04-03T01:58:35;3.70;;;2.30;;
12719;SDS011;6424;48.520;11.228;2023-04-03T02:01:16;4.50;;;2.40;;
12719;SDS011;6424;48.520;11.228;2023-04-03T02:03:57;2.87;;;2.53;;
12719;SDS011;6424;48.520;11.228;2023-04-03T02:06:37;3.13;;;2.43;;
12719;SDS011;6424;48.520;11.228;2023-04-03T02:09:03;3.33;;;2.47;;
12719;SDS011;6424;48.520;11.228;2023-04-03T02:11:44;3.00;;;2.63;;
12719;SDS011;6424;48.520;11.228;2023-04-03T02:14:10;3.37;;;2.83;;
12719;SDS011;6424;48.520;11.228;2023-04-03T02:16:51;2.93;;;2.67;;
12719;SDS011;6424;48.520;11.228;2023-04-03T02:19:16;2.97;;;2.63;;
12719;SDS011;6424;48.520;11.228;2023-04-03T02:21:57;3.93;;;2.67;;
12719;SDS011;6424;48.520;11.228;2023-04-03T02:24:38;2.70;;;2.33;;
12719;SDS011;6424;48.520;11.228;2023-04-03T02:27:20;3.70;;;2.70;;
12719;SDS011;6424;48.520;11.228;2023-04-03T02:30:01;3.00;;;2.63;;
12719;SDS011;6424;48.520;11.228;2023-04-03T02:32:27;3.73;;;2.80;;
12719;SDS011;6424;48.520;11.228;2023-04-03T02:35:08;4.17;;;3.30;;
12719;SDS011;6424;48.520;11.228;2023-04-03T02:37:50;2.63;;;2.43;;
12719;SDS011;6424;48.520;11.228;2023-04-03T02:40:31;2.80;;;2.60;;
12719;SDS011;6424;48.520;11.228;2023-04-03T02:42:57;3.43;;;2.87;;
12719;SDS011;6424;48.520;11.228;2023-04-03T02:45:37;3.20;;;2.90;;
12719;SDS011;6424;48.520;11.228;2023-04-03T02:48:18;3.70;;;3.20;;
12719;SDS011;6424;48.520;11.228;2023-04-03T02:50:59;4.70;;;3.80;;
12719;SDS011;6424;48.520;11.228;2023-04-03T02:53:41;4.90;;;3.57;;
12719;SDS011;6424;48.520;11.228;2023-04-03T02:56:21;4.40;;;3.30;;
12719;SDS011;6424;48.520;11.228;2023-04-03T02:59:02;4.73;;;3.90;;
12719;SDS011;6424;48.520;11.228;2023-04-03T03:01:28;5.70;;;4.10;;
12719;SDS011;6424;48.520;11.228;2023-04-03T03:04:11;5.20;;;4.03;;
12719;SDS011;6424;48.520;11.228;2023-04-03T03:06:52;5.90;;;5.30;;
12719;SDS011;6424;48.520;11.228;2023-04-03T03:09:33;5.33;;;4.43;;
12719;SDS011;6424;48.520;11.228;2023-04-03T03:11:59;5.70;;;4.40;;
12719;SDS011;6424;48.520;11.228;2023-04-03T03:14:40;4.67;;;3.80;;
12719;SDS011;6424;48.520;11.228;2023-04-03T03:17:22;4.03;;;3.50;;
12719;SDS011;6424;48.520;11.228;2023-04-03T03:20:04;5.00;;;3.53;;
12719;SDS011;6424;48.520;11.228;2023-04-03T03:22:46;5.03;;;3.37;;
12719;SDS011;6424;48.520;11.228;2023-04-03T03:25:26;5.37;;;3.60;;
12719;SDS011;6424;48.520;11.228;2023-04-03T03:28:07;5.77;;;3.40;;
12719;SDS011;6424;48.520;11.228;2023-04-03T03:30:48;5.30;;;3.57;;
12719;SDS011;6424;48.520;11.228;2023-04-03T03:33:29;3.67;;;3.37;;
12719;SDS011;6424;48.520;11.228;2023-04-03T03:36:10;5.37;;;3.47;;
12719;SDS011;6424;48.520;11.228;2023-04-03T03:38:51;4.97;;;3.33;;
12719;SDS011;6424;48.520;11.228;2023-04-03T03:41:32;3.10;;;2.80;;
12719;SDS011;6424;48.520;11.228;2023-04-03T03:44:12;3.70;;;3.17;;
12719;SDS011;6424;48.520;11.228;2023-04-03T03:46:53;3.77;;;3.10;;
12719;SDS011;6424;48.520;11.228;2023-04-03T03:49:34;3.97;;;3.37;;
12719;SDS011;6424;48.520;11.228;2023-04-03T03:52:15;3.67;;;2.80;;
12719;SDS011;6424;48.520;11.228;2023-04-03T03:54:56;3.30;;;3.00;;
12719;SDS011;6424;48.520;11.228;2023-04-03T03:57:36;4.43;;;3.43;;
12719;SDS011;6424;48.520;11.228;2023-04-03T04:00:17;3.47;;;3.17;;
12719;SDS011;6424;48.520;11.228;2023-04-03T04:02:43;4.33;;;3.80;;
12719;SDS011;6424;48.520;11.228;2023-04-03T04:05:24;3.93;;;3.63;;
12719;SDS011;6424;48.520;11.228;2023-04-03T04:08:05;4.73;;;4.20;;
12719;SDS011;6424;48.520;11.228;2023-04-03T04:10:31;4.40;;;4.00;;
12719;SDS011;6424;48.520;11.228;2023-04-03T04:13:12;4.70;;;3.70;;
12719;SDS011;6424;48.520;11.228;2023-04-03T04:15:53;3.50;;;3.20;;
12719;SDS011;6424;48.520;11.228;2023-04-03T04:18:34;4.10;;;3.70;;
12719;SDS011;6424;48.520;11.228;2023-04-03T04:21:15;4.10;;;3.63;;
12719;SDS011;6424;48.520;11.228;2023-04-03T04:23:56;3.43;;;3.13;;
12719;SDS011;6424;48.520;11.228;2023-04-03T04:26:36;5.50;;;4.03;;
12719;SDS011;6424;48.520;11.228;2023-04-03T04:29:02;4.33;;;3.80;;
12719;SDS011;6424;48.520;11.228;2023-04-03T04:31:43;3.90;;;3.60;;
12719;SDS011;6424;48.520;11.228;2023-04-03T04:34:24;4.80;;;4.20;;
12719;SDS011;6424;48.520;11.228;2023-04-03T04:37:05;7.33;;;4.63;;
12719;SDS011;6424;48.520;11.228;2023-04-03T04:39:45;6.63;;;4.63;;
12719;SDS011;6424;48.520;11.228;2023-04-03T04:42:26;5.47;;;4.40;;
12719;SDS011;6424;48.520;11.228;2023-04-03T04:45:07;6.00;;;4.37;;
12719;SDS011;6424;48.520;11.228;2023-04-03T04:47:48;4.10;;;3.70;;
12719;SDS011;6424;48.520;11.228;2023-04-03T04:50:31;4.30;;;3.90;;
12719;SDS011;6424;48.520;11.228;2023-04-03T04:53:12;6.07;;;4.50;;
12719;SDS011;6424;48.520;11.228;2023-04-03T04:55:53;3.90;;;3.50;;
12719;SDS011;6424;48.520;11.228;2023-04-03T04:58:34;5.67;;;4.43;;
12719;SDS011;6424;48.520;11.228;2023-04-03T05:01:15;4.60;;;4.20;;
12719;SDS011;6424;48.520;11.228;2023-04-03T05:03:56;6.47;;;4.70;;
12719;SDS011;6424;48.520;11.228;2023-04-03T05:06:36;4.60;;;4.07;;
12719;SDS011;6424;48.520;11.228;2023-04-03T05:09:17;4.57;;;4.17;;
12719;SDS011;6424;48.520;11.228;2023-04-03T05:12:00;7.73;;;4.20;;
12719;SDS011;6424;48.520;11.228;2023-04-03T05:14:40;4.83;;;4.43;;
12719;SDS011;6424;48.520;11.228;2023-04-03T05:17:21;4.47;;;4.07;;
12719;SDS011;6424;48.520;11.228;2023-04-03T05:20:02;5.50;;;4.50;;
12719;SDS011;6424;48.520;11.228;2023-04-03T05:22:44;4.80;;;4.17;;
12719;SDS011;6424;48.520;11.228;2023-04-03T05:25:25;5.17;;;4.63;;
12719;SDS011;6424;48.520;11.228;2023-04-03T05:28:06;5.90;;;5.23;;
12719;SDS011;6424;48.520;11.228;2023-04-03T05:30:54;7.33;;;5.03;;
12719;SDS011;6424;48.520;11.228;2023-04-03T05:33:35;6.27;;;4.90;;
12719;SDS011;6424;48.520;11.228;2023-04-03T05:36:16;4.57;;;4.10;;
12719;SDS011;6424;48.520;11.228;2023-04-03T05:38:57;4.70;;;4.13;;
12719;SDS011;6424;48.520;11.228;2023-04-03T05:41:38;4.87;;;3.97;;
12719;SDS011;6424;48.520;11.228;2023-04-03T05:44:04;5.77;;;3.90;;
12719;SDS011;6424;48.520;11.228;2023-04-03T05:46:45;4.10;;;3.50;;
12719;SDS011;6424;48.520;11.228;2023-04-03T05:49:26;6.13;;;4.27;;
12719;SDS011;6424;48.520;11.228;2023-04-03T05:52:17;5.23;;;3.97;;
12719;SDS011;6424;48.520;11.228;2023-04-03T05:55:03;4.07;;;3.67;;
12719;SDS011;6424;48.520;11.228;2023-04-03T05:57:44;4.77;;;3.40;;
12719;SDS011;6424;48.520;11.228;2023-04-03T06:00:25;4.90;;;3.73;;
12719;SDS011;6424;48.520;11.228;2023-04-03T06:03:07;5.70;;;4.77;;
12719;SDS011;6424;48.520;11.228;2023-04-03T06:05:48;5.60;;;4.60;;
12719;SDS011;6424;48.520;11.228;2023-04-03T06:08:29;5.60;;;4.20;;
12719;SDS011;6424;48.520;11.228;2023-04-03T06:11:10;6.30;;;4.37;;
12719;SDS011;6424;48.520;11.228;2023-04-03T06:13:51;4.37;;;3.07;;
12719;SDS011;6424;48.520;11.228;2023-04-03T06:16:32;8.70;;;5.30;;
12719;SDS011;6424;48.520;11.228;2023-04-03T06:19:13;5.63;;;3.83;;
12719;SDS011;6424;48.520;11.228;2023-04-03T06:21:53;9.07;;;5.80;;
12719;SDS011;6424;48.520;11.228;2023-04-03T06:24:19;4.70;;;3.63;;
12719;SDS011;6424;48.520;11.228;2023-04-03T06:27:02;4.40;;;3.07;;
12719;SDS011;6424;48.520;11.228;2023-04-03T06:29:43;11.23;;;5.87;;
12719;SDS011;6424;48.520;11.228;2023-04-03T06:32:25;3.90;;;3.47;;
12719;SDS011;6424;48.520;11.228;2023-04-03T06:35:06;6.53;;;4.90;;
12719;SDS011;6424;48.520;11.228;2023-04-03T06:37:33;10.57;;;7.10;;
12719;SDS011;6424;48.520;11.228;2023-04-03T06:39:59;7.00;;;5.17;;
12719;SDS011;6424;48.520;11.228;2023-04-03T06:42:43;4.77;;;3.47;;
12719;SDS011;6424;48.520;11.228;2023-04-03T06:45:23;4.03;;;3.57;;
12719;SDS011;6424;48.520;11.228;2023-04-03T06:48:05;4.50;;;3.17;;
12719;SDS011;6424;48.520;11.228;2023-04-03T06:50:46;4.27;;;3.20;;
12719;SDS011;6424;48.520;11.228;2023-04-03T06:53:27;3.37;;;2.90;;
12719;SDS011;6424;48.520;11.228;2023-04-03T06:55:53;4.73;;;3.23;;
12719;SDS011;6424;48.520;11.228;2023-04-03T06:58:33;3.43;;;2.90;;
12719;SDS011;6424;48.520;11.228;2023-04-03T07:01:15;4.20;;;3.27;;
12719;SDS011;6424;48.520;11.228;2023-04-03T07:03:57;3.93;;;2.93;;
12719;SDS011;6424;48.520;11.228;2023-04-03T07:06:38;4.00;;;3.20;;
12719;SDS011;6424;48.520;11.228;2023-04-03T07:09:19;3.20;;;2.90;;
12719;SDS011;6424;48.520;11.228;2023-04-03T07:12:00;4.23;;;3.23;;
12719;SDS011;6424;48.520;11.228;2023-04-03T07:14:41;5.13;;;3.20;;
12719;SDS011;6424;48.520;11.228;2023-04-03T07:17:22;4.33;;;2.90;;
12719;SDS011;6424;48.520;11.228;2023-04-03T07:20:03;3.50;;;3.10;;
12719;SDS011;6424;48.520;11.228;2023-04-03T07:22:44;4.67;;;2.83;;
12719;SDS011;6424;48.520;11.228;2023-04-03T07:25:25;5.67;;;3.40;;
12719;SDS011;6424;48.520;11.228;2023-04-03T07:27:51;4.50;;;3.13;;
12719;SDS011;6424;48.520;11.228;2023-04-03T07:30:34;5.13;;;2.83;;
12719;SDS011;6424;48.520;11.228;2023-04-03T07:33:16;7.03;;;3.60;;
12719;SDS011;6424;48.520;11.228;2023-04-03T07:36:01;5.90;;;3.13;;
12719;SDS011;6424;48.520;11.228;2023-04-03T07:38:42;4.30;;;3.10;;
12719;SDS011;6424;48.520;11.228;2023-04-03T07:41:10;4.97;;;3.30;;
12719;SDS011;6424;48.520;11.228;2023-04-03T07:43:55;3.63;;;3.10;;
12719;SDS011;6424;48.520;11.228;2023-04-03T07:46:21;3.90;;;2.97;;
12719;SDS011;6424;48.520;11.228;2023-04-03T07:48:48;4.73;;;3.50;;
12719;SDS011;6424;48.520;11.228;2023-04-03T07:51:29;5.87;;;3.60;;
12719;SDS011;6424;48.520;11.228;2023-04-03T07:54:10;4.57;;;3.20;;
12719;SDS011;6424;48.520;11.228;2023-04-03T07:56:51;4.17;;;2.90;;
12719;SDS011;6424;48.520;11.228;2023-04-03T07:59:31;5.20;;;3.33;;
12719;SDS011;6424;48.520;11.228;2023-04-03T08:02:12;4.23;;;3.00;;
12719;SDS011;6424;48.520;11.228;2023-04-03T08:04:53;4.73;;;3.50;;
12719;SDS011;6424;48.520;11.228;2023-04-03T08:07:34;6.87;;;4.07;;
12719;SDS011;6424;48.520;11.228;2023-04-03T08:10:16;4.50;;;3.60;;
12719;SDS011;6424;48.520;11.228;2023-04-03T08:12:57;3.40;;;3.10;;
12719;SDS011;6424;48.520;11.228;2023-04-03T08:15:38;5.23;;;3.40;;
12719;SDS011;6424;48.520;11.228;2023-04-03T08:18:18;3.53;;;2.97;;
12719;SDS011;6424;48.520;11.228;2023-04-03T08:20:46;6.83;;;3.40;;
12719;SDS011;6424;48.520;11.228;2023-04-03T08:23:27;4.17;;;3.07;;
12719;SDS011;6424;48.520;11.228;2023-04-03T08:26:12;5.23;;;3.20;;
12719;SDS011;6424;48.520;11.228;2023-04-03T08:28:58;3.53;;;3.00;;
12719;SDS011;6424;48.520;11.228;2023-04-03T08:31:38;5.07;;;3.13;;
12719;SDS011;6424;48.520;11.228;2023-04-03T08:34:19;5.97;;;3.63;;
12719;SDS011;6424;48.520;11.228;2023-04-03T08:37:01;3.90;;;3.50;;
12719;SDS011;6424;48.520;11.228;2023-04-03T08:39:42;4.90;;;3.10;;
12719;SDS011;6424;48.520;11.228;2023-04-03T08:48:34;5.10;;;3.40;;
12719;SDS011;6424;48.520;11.228;2023-04-03T08:51:19;4.47;;;3.57;;
12719;SDS011;6424;48.520;11.228;2023-04-03T08:54:07;3.57;;;3.23;;
12719;SDS011;6424;48.520;11.228;2023-04-03T08:56:59;3.97;;;3.10;;
12719;SDS011;6424;48.520;11.228;2023-04-03T08:59:43;6.43;;;3.40;;
12719;SDS011;6424;48.520;11.228;2023-04-03T09:02:17;4.00;;;3.47;;
12719;SDS011;6424;48.520;11.228;2023-04-03T09:05:17;6.37;;;3.27;;
12719;SDS011;6424;48.520;11.228;2023-04-03T09:08:24;3.60;;;3.17;;
12719;SDS011;6424;48.520;11.228;2023-04-03T09:14:01;4.60;;;3.13;;
12719;SDS011;6424;48.520;11.228;2023-04-03T09:16:58;5.93;;;3.70;;
12719;SDS011;6424;48.520;11.228;2023-04-03T09:22:36;4.17;;;3.07;;
12719;SDS011;6424;48.520;11.228;2023-04-03T09:25:22;6.80;;;3.47;;
12719;SDS011;6424;48.520;11.228;2023-04-03T09:28:05;5.90;;;3.30;;
12719;SDS011;6424;48.520;11.228;2023-04-03T09:30:49;5.17;;;3.23;;
12719;SDS011;6424;48.520;11.228;2023-04-03T09:33:30;4.43;;;3.23;;
12719;SDS011;6424;48.520;11.228;2023-04-03T09:36:12;3.70;;;3.10;;
12719;SDS011;6424;48.520;11.228;2023-04-03T09:41:43;4.17;;;3.20;;
12719;SDS011;6424;48.520;11.228;2023-04-03T09:44:48;5.67;;;3.50;;
12719;SDS011;6424;48.520;11.228;2023-04-03T09:47:38;4.80;;;2.90;;
12719;SDS011;6424;48.520;11.228;2023-04-03T09:50:21;5.97;;;3.17;;
12719;SDS011;6424;48.520;11.228;2023-04-03T09:53:07;5.77;;;3.23;;
12719;SDS011;6424;48.520;11.228;2023-04-03T10:01:39;9.10;;;6.07;;
12719;SDS011;6424;48.520;11.228;2023-04-03T10:04:23;3.40;;;3.10;;
12719;SDS011;6424;48.520;11.228;2023-04-03T10:07:04;5.73;;;2.97;;
12719;SDS011;6424;48.520;11.228;2023-04-03T10:10:29;5.20;;;3.13;;
12719;SDS011;6424;48.520;11.228;2023-04-03T10:13:17;3.63;;;2.80;;
12719;SDS011;6424;48.520;11.228;2023-04-03T10:18:42;5.60;;;2.80;;
12719;SDS011;6424;48.520;11.228;2023-04-03T10:21:50;3.87;;;2.67;;
12719;SDS011;6424;48.520;11.228;2023-04-03T10:30:42;5.77;;;2.30;;
12719;SDS011;6424;48.520;11.228;2023-04-03T10:33:59;2.47;;;2.10;;
12719;SDS011;6424;48.520;11.228;2023-04-03T10:36:56;4.47;;;2.60;;
12719;SDS011;6424;48.520;11.228;2023-04-03T10:39:57;3.80;;;2.50;;
12719;SDS011;6424;48.520;11.228;2023-04-03T10:45:50;6.77;;;2.90;;
12719;SDS011;6424;48.520;11.228;2023-04-03T10:49:07;7.07;;;2.20;;
12719;SDS011;6424;48.520;11.228;2023-04-03T10:54:48;4.27;;;2.80;;
12719;SDS011;6424;48.520;11.228;2023-04-03T10:57:33;5.90;;;2.63;;
12719;SDS011;6424;48.520;11.228;2023-04-03T11:00:16;4.47;;;2.50;;
12719;SDS011;6424;48.520;11.228;2023-04-03T11:03:01;3.63;;;2.33;;
12719;SDS011;6424;48.520;11.228;2023-04-03T11:05:50;3.77;;;2.50;;
12719;SDS011;6424;48.520;11.228;2023-04-03T11:11:23;3.57;;;2.37;;
12719;SDS011;6424;48.520;11.228;2023-04-03T11:14:26;2.27;;;1.80;;
12719;SDS011;6424;48.520;11.228;2023-04-03T11:17:19;2.60;;;1.93;;
12719;SDS011;6424;48.520;11.228;2023-04-03T11:23:26;3.53;;;1.93;;
12719;SDS011;6424;48.520;11.228;2023-04-03T11:25:59;1.90;;;1.70;;
12719;SDS011;6424;48.520;11.228;2023-04-03T11:28:53;3.97;;;2.33;;
12719;SDS011;6424;48.520;11.228;2023-04-03T11:34:37;4.13;;;2.17;;
12719;SDS011;6424;48.520;11.228;2023-04-03T11:37:28;3.30;;;1.80;;
12719;SDS011;6424;48.520;11.228;2023-04-03T11:43:05;3.97;;;2.47;;
12719;SDS011;6424;48.520;11.228;2023-04-03T11:46:05;2.53;;;2.07;;
12719;SDS011;6424;48.520;11.228;2023-04-03T11:48:48;3.03;;;2.20;;
12719;SDS011;6424;48.520;11.228;2023-04-03T11:51:39;3.37;;;2.00;;
12719;SDS011;6424;48.520;11.228;2023-04-03T11:54:35;2.47;;;2.10;;
12719;SDS011;6424;48.520;11.228;2023-04-03T11:57:41;3.57;;;1.90;;
12719;SDS011;6424;48.520;11.228;2023-04-03T12:03:35;2.70;;;1.70;;
12719;SDS011;6424;48.520;11.228;2023-04-03T12:12:38;4.23;;;1.60;;
12719;SDS011;6424;48.520;11.228;2023-04-03T12:15:18;2.33;;;1.40;;
12719;SDS011;6424;48.520;11.228;2023-04-03T12:21:18;3.77;;;2.00;;
12719;SDS011;6424;48.520;11.228;2023-04-03T12:29:47;1.63;;;1.40;;
12719;SDS011;6424;48.520;11.228;2023-04-03T12:32:40;3.50;;;1.47;;
12719;SDS011;6424;48.520;11.228;2023-04-03T12:35:40;3.23;;;1.93;;
12719;SDS011;6424;48.520;11.228;2023-04-03T12:41:50;2.07;;;1.87;;
12719;SDS011;6424;48.520;11.228;2023-04-03T12:47:57;2.50;;;1.50;;
12719;SDS011;6424;48.520;11.228;2023-04-03T12:50:28;2.33;;;1.60;;
12719;SDS011;6424;48.520;11.228;2023-04-03T12:53:13;3.27;;;1.83;;
12719;SDS011;6424;48.520;11.228;2023-04-03T12:55:44;1.40;;;1.30;;
12719;SDS011;6424;48.520;11.228;2023-04-03T12:58:26;2.47;;;1.90;;
12719;SDS011;6424;48.520;11.228;2023-04-03T13:03:58;4.97;;;1.80;;
12719;SDS011;6424;48.520;11.228;2023-04-03T13:06:40;1.70;;;1.40;;
12719;SDS011;6424;48.520;11.228;2023-04-03T13:09:24;1.77;;;1.27;;
12719;SDS011;6424;48.520;11.228;2023-04-03T13:12:14;4.00;;;2.03;;
12719;SDS011;6424;48.520;11.228;2023-04-03T13:14:50;1.97;;;1.40;;
12719;SDS011;6424;48.520;11.228;2023-04-03T13:17:37;1.90;;;1.20;;
12719;SDS011;6424;48.520;11.228;2023-04-03T13:20:22;2.33;;;1.40;;
12719;SDS011;6424;48.520;11.228;2023-04-03T13:23:10;3.23;;;1.70;;
12719;SDS011;6424;48.520;11.228;2023-04-03T13:25:55;3.83;;;1.00;;
12719;SDS011;6424;48.520;11.228;2023-04-03T13:28:39;2.43;;;1.37;;
12719;SDS011;6424;48.520;11.228;2023-04-03T13:31:37;5.03;;;2.30;;
12719;SDS011;6424;48.520;11.228;2023-04-03T13:34:20;7.13;;;3.40;;
12719;SDS011;6424;48.520;11.228;2023-04-03T13:39:34;3.27;;;2.00;;
12719;SDS011;6424;48.520;11.228;2023-04-03T13:42:27;2.33;;;1.17;;
12719;SDS011;6424;48.520;11.228;2023-04-03T13:47:52;3.40;;;1.30;;
12719;SDS011;6424;48.520;11.228;2023-04-03T14:07:24;1.40;;;1.20;;
12719;SDS011;6424;48.520;11.228;2023-04-03T14:10:05;4.10;;;1.00;;
12719;SDS011;6424;48.520;11.228;2023-04-03T14:12:35;1.87;;;1.20;;
12719;SDS011;6424;48.520;11.228;2023-04-03T14:15:23;2.13;;;1.50;;
12719;SDS011;6424;48.520;11.228;2023-04-03T14:17:51;3.10;;;1.43;;
12719;SDS011;6424;48.520;11.228;2023-04-03T14:20:32;2.67;;;1.30;;
12719;SDS011;6424;48.520;11.228;2023-04-03T14:23:13;2.10;;;1.70;;
12719;SDS011;6424;48.520;11.228;2023-04-03T14:25:54;2.47;;;1.20;;
12719;SDS011;6424;48.520;11.228;2023-04-03T14:28:21;1.97;;;1.20;;
12719;SDS011;6424;48.520;11.228;2023-04-03T14:31:02;3.90;;;2.40;;
12719;SDS011;6424;48.520;11.228;2023-04-03T14:33:43;1.20;;;0.90;;
12719;SDS011;6424;48.520;11.228;2023-04-03T14:36:26;6.67;;;3.10;;
12719;SDS011;6424;48.520;11.228;2023-04-03T14:39:10;2.50;;;1.67;;
12719;SDS011;6424;48.520;11.228;2023-04-03T14:41:56;1.60;;;1.07;;
12719;SDS011;6424;48.520;11.228;2023-04-03T14:44:37;2.07;;;1.17;;
12719;SDS011;6424;48.520;11.228;2023-04-03T14:47:22;3.13;;;1.90;;
12719;SDS011;6424;48.520;11.228;2023-04-03T14:50:06;3.30;;;1.90;;
12719;SDS011;6424;48.520;11.228;2023-04-03T14:52:52;2.60;;;1.67;;
12719;SDS011;6424;48.520;11.228;2023-04-03T14:55:35;2.00;;;1.50;;
12719;SDS011;6424;48.520;11.228;2023-04-03T14:58:17;2.17;;;1.40;;
12719;SDS011;6424;48.520;11.228;2023-04-03T15:00:59;2.30;;;1.40;;
12719;SDS011;6424;48.520;11.228;2023-04-03T15:03:40;3.87;;;1.70;;
12719;SDS011;6424;48.520;11.228;2023-04-03T15:06:21;3.23;;;1.63;;
12719;SDS011;6424;48.520;11.228;2023-04-03T15:09:02;2.57;;;1.93;;
12719;SDS011;6424;48.520;11.228;2023-04-03T15:11:43;3.03;;;1.40;;
12719;SDS011;6424;48.520;11.228;2023-04-03T15:14:24;4.87;;;1.20;;
12719;SDS011;6424;48.520;11.228;2023-04-03T15:17:05;2.17;;;1.40;;
12719;SDS011;6424;48.520;11.228;2023-04-03T15:19:48;2.67;;;1.87;;
12719;SDS011;6424;48.520;11.228;2023-04-03T15:22:29;4.83;;;2.20;;
12719;SDS011;6424;48.520;11.228;2023-04-03T15:25:10;2.63;;;1.60;;
12719;SDS011;6424;48.520;11.228;2023-04-03T15:27:36;4.53;;;2.47;;
12719;SDS011;6424;48.520;11.228;2023-04-03T15:30:18;3.50;;;1.70;;
12719;SDS011;6424;48.520;11.228;2023-04-03T15:32:59;4.33;;;3.93;;
12719;SDS011;6424;48.520;11.228;2023-04-03T15:35:25;6.00;;;2.80;;
12719;SDS011;6424;48.520;11.228;2023-04-03T15:38:06;3.77;;;1.90;;
12719;SDS011;6424;48.520;11.228;2023-04-03T15:40:46;1.83;;;1.20;;
12719;SDS011;6424;48.520;11.228;2023-04-03T15:43:27;2.60;;;1.90;;
12719;SDS011;6424;48.520;11.228;2023-04-03T15:46:08;2.70;;;2.00;;
12719;SDS011;6424;48.520;11.228;2023-04-03T15:48:49;3.07;;;2.03;;
12719;SDS011;6424;48.520;11.228;2023-04-03T15:51:15;3.13;;;1.40;;
12719;SDS011;6424;48.520;11.228;2023-04-03T15:53:56;3.30;;;1.60;;
12719;SDS011;6424;48.520;11.228;2023-04-03T15:56:36;2.83;;;1.70;;
12719;SDS011;6424;48.520;11.228;2023-04-03T15:59:17;1.93;;;1.40;;
12719;SDS011;6424;48.520;11.228;2023-04-03T16:01:58;3.30;;;2.10;;
12719;SDS011;6424;48.520;11.228;2023-04-03T16:04:41;3.60;;;2.10;;
12719;SDS011;6424;48.520;11.228;2023-04-03T16:07:22;1.30;;;1.10;;
12719;SDS011;6424;48.520;11.228;2023-04-03T16:10:03;2.87;;;1.60;;
12719;SDS011;6424;48.520;11.228;2023-04-03T16:12:30;2.17;;;1.30;;
12719;SDS011;6424;48.520;11.228;2023-04-03T16:15:11;4.63;;;2.00;;
12719;SDS011;6424;48.520;11.228;2023-04-03T16:17:52;6.03;;;3.43;;
12719;SDS011;6424;48.520;11.228;2023-04-03T16:20:34;3.23;;;1.50;;
12719;SDS011;6424;48.520;11.228;2023-04-03T16:23:15;6.03;;;2.90;;
12719;SDS011;6424;48.520;11.228;2023-04-03T16:25:41;2.33;;;1.47;;
12719;SDS011;6424;48.520;11.228;2023-04-03T16:28:26;5.97;;;1.73;;
12719;SDS011;6424;48.520;11.228;2023-04-03T16:31:06;3.23;;;1.53;;
12719;SDS011;6424;48.520;11.228;2023-04-03T16:33:33;3.60;;;1.50;;
12719;SDS011;6424;48.520;11.228;2023-04-03T16:35:59;2.60;;;1.30;;
12719;SDS011;6424;48.520;11.228;2023-04-03T16:38:40;3.53;;;2.00;;
12719;SDS011;6424;48.520;11.228;2023-04-03T16:41:21;1.67;;;1.40;;
12719;SDS011;6424;48.520;11.228;2023-04-03T16:44:02;3.47;;;1.50;;
12719;SDS011;6424;48.520;11.228;2023-04-03T16:46:28;2.00;;;1.47;;
12719;SDS011;6424;48.520;11.228;2023-04-03T16:49:08;2.07;;;1.40;;
12719;SDS011;6424;48.520;11.228;2023-04-03T16:51:50;3.27;;;1.27;;
12719;SDS011;6424;48.520;11.228;2023-04-03T16:54:32;2.77;;;1.20;;
12719;SDS011;6424;48.520;11.228;2023-04-03T16:57:13;1.40;;;1.13;;
12719;SDS011;6424;48.520;11.228;2023-04-03T16:59:39;1.63;;;1.33;;
12719;SDS011;6424;48.520;11.228;2023-04-03T17:02:20;1.73;;;1.27;;
12719;SDS011;6424;48.520;11.228;2023-04-03T17:05:04;2.27;;;1.10;;
12719;SDS011;6424;48.520;11.228;2023-04-03T17:07:45;2.10;;;1.23;;
12719;SDS011;6424;48.520;11.228;2023-04-03T17:10:26;2.00;;;1.20;;
12719;SDS011;6424;48.520;11.228;2023-04-03T17:13:08;2.13;;;1.20;;
12719;SDS011;6424;48.520;11.228;2023-04-03T17:15:48;1.83;;;1.37;;
12719;SDS011;6424;48.520;11.228;2023-04-03T17:18:30;7.03;;;3.73;;
12719;SDS011;6424;48.520;11.228;2023-04-03T17:21:12;1.67;;;1.40;;
12719;SDS011;6424;48.520;11.228;2023-04-03T17:23:55;1.97;;;1.37;;
12719;SDS011;6424;48.520;11.228;2023-04-03T17:26:40;2.83;;;1.60;;
12719;SDS011;6424;48.520;11.228;2023-04-03T17:29:21;2.07;;;1.20;;
12719;SDS011;6424;48.520;11.228;2023-04-03T17:32:02;2.73;;;1.27;;
12719;SDS011;6424;48.520;11.228;2023-04-03T17:34:45;1.70;;;1.20;;
12719;SDS011;6424;48.520;11.228;2023-04-03T17:37:26;2.10;;;1.30;;
12719;SDS011;6424;48.520;11.228;2023-04-03T17:40:07;2.80;;;1.30;;
12719;SDS011;6424;48.520;11.228;2023-04-03T17:42:33;2.40;;;1.40;;
12719;SDS011;6424;48.520;11.228;2023-04-03T17:45:14;2.73;;;1.53;;
12719;SDS011;6424;48.520;11.228;2023-04-03T17:47:55;3.87;;;1.40;;
12719;SDS011;6424;48.520;11.228;2023-04-03T17:50:36;1.80;;;1.20;;
12719;SDS011;6424;48.520;11.228;2023-04-03T17:53:17;1.77;;;1.60;;
12719;SDS011;6424;48.520;11.228;2023-04-03T17:55:57;2.43;;;1.60;;
12719;SDS011;6424;48.520;11.228;2023-04-03T17:58:38;2.53;;;1.20;;
12719;SDS011;6424;48.520;11.228;2023-04-03T18:01:21;1.73;;;1.40;;